Claremore, OK

2:12 AM CDT on August 30, 2015 (GMT -0500)
APRSWXNET | | Change Station
CLOSE
Current Station
Personal Weather Station
Location: Inola, OK
Elevation: 639 ft
Nearby Weather Stations

Elev 639 ft 36.17 °N, 95.55 °W | Updated 22 minutes ago

Overcast
Overcast
74 °F
Feels Like 70 °F
N
0
Wind Variable Wind from North
Gusts 0.0 mph

Today
High -- | Low -- °F
--% Chance of Precip.
Yesterday
High -- | Low -- °F
Precip. -- in
6:52 AM 7:53 PM
Full, 100% visible
Pressure 29.99 in
Visibility 10.0 miles
Clouds Mostly Cloudy 5000 ft
Mostly Cloudy 7000 ft
Heat Index 70 °F
Dew Point 74 °F
Humidity 99%
Rainfall in
Snow Depth Not available.
UV 0 out of 12
Pollen 8.20 out of 12
Air Quality Not available.
Flu Activity Not available.
METAR KGCM 300655Z AUTO 00000KT 10SM BKN050 BKN070 22/20 A2999 RMK AO2
Pressure 29.99 in
Visibility 10.0 miles
Clouds Mostly Cloudy 5000 ft
Mostly Cloudy 7000 ft
Heat Index 70 °F
Dew Point 74 °F
Humidity 99%
Rainfall in
Snow Depth Not available.
UV 0 out of 12
Pollen 8.20 out of 12
Air Quality Not available.
Flu Activity Not available.
METAR KGCM 300655Z AUTO 00000KT 10SM BKN050 BKN070 22/20 A2999 RMK AO2
Nowcast | as of 1:02 am CDT on August 30, 2015

At 1 am...National Weather Service Doppler radar indicated isolated showers and thunderstorms mainly along and east of U.S. Highway 69. The showers and storms were moving east at 15 miles an hour. Through 3 am...isolated showers and thunderstorms will remain possible...mainly east of U.S. Highway 69. Most places will remain dry...but a few locations will see a brief period of heavy rain and cloud to ground lightning.

×

10-Day Weather Forecast

×

Almanac

Astronomy

Aug. 30, 2015 Rise Set
Actual Time
Civil Twilight
Nautical Twilight
Astronomical Twilight
Moon
Length of Visible Light
Length of Day
Tomorrow will be .
, % of the Moon is Illuminated

Today's Extremes

State Highs State Lows

Community

WunderPhotos

Upload Photos

1,850,904 photos uploaded!

WunderBlogs® & News

Nearby

Air Quality

  Air Quality AQ Index Pollutant
Not available.

Snow Depth

Station Depth Elevation

Earthquake Activity

City Distance Mag. Time & Date
Minimum magnitude displayed is 2.5.

Coastal Water Temperatures

Place Temperature

Stations

Nearby Weather Stations

Station Location Temp. Windchill Dew Point Humidity Wind Precip. Elev Updated Type